createdAt,value
2023-03-29T00:00:43.541Z,99351.19
2023-03-29T00:05:49.026Z,99346.84
2023-03-29T00:10:56.936Z,99343.53
2023-03-29T00:16:04.809Z,99332.13
2023-03-29T00:21:10.347Z,99327.34
2023-03-29T00:26:15.607Z,99318.69
2023-03-29T00:31:23.369Z,99309.69
2023-03-29T00:36:30.766Z,99306.94
2023-03-29T00:41:35.832Z,99308.31
2023-03-29T00:46:43.766Z,99312.50
2023-03-29T00:51:49.008Z,99305.81
2023-03-29T00:56:55.956Z,99305.81
2023-03-29T01:02:07.314Z,99289.25
2023-03-29T01:07:22.053Z,99288.81
2023-03-29T01:12:32.879Z,99274.53
2023-03-29T01:17:40.839Z,99271.72
2023-03-29T01:23:00.867Z,99261.31
2023-03-29T01:28:11.635Z,99244.09
2023-03-29T01:33:23.721Z,99243.66
2023-03-29T01:38:34.640Z,99229.88
2023-03-29T01:43:48.931Z,99237.50
2023-03-29T01:49:00.860Z,99221.09
2023-03-29T01:54:10.877Z,99221.31
2023-03-29T01:59:22.941Z,99213.22
2023-03-29T02:04:34.576Z,99208.91
2023-03-29T02:09:47.440Z,99200.09
2023-03-29T02:14:57.321Z,99191.34
2023-03-29T02:20:14.917Z,99198.41
2023-03-29T02:25:22.872Z,99190.75
2023-03-29T02:30:41.093Z,99192.56
2023-03-29T02:35:53.489Z,99175.03
2023-03-29T02:41:01.590Z,99173.34
2023-03-29T02:46:13.873Z,99167.66
2023-03-29T02:51:23.295Z,99150.31
2023-03-29T02:56:33.870Z,99144.94
2023-03-29T03:01:43.047Z,99138.78
2023-03-29T03:06:48.487Z,99130.31
2023-03-29T03:11:57.853Z,99122.88
2023-03-29T03:17:09.027Z,99121.41
2023-03-29T03:22:15.473Z,99110.97
2023-03-29T03:27:21.162Z,99114.34
2023-03-29T03:32:29.835Z,99116.44
2023-03-29T03:38:08.781Z,99106.31
2023-03-29T03:43:16.651Z,99100.06
2023-03-29T03:48:28.203Z,99100.88
2023-03-29T03:53:52.682Z,99107.34
2023-03-29T03:59:11.220Z,99097.34
2023-03-29T04:04:37.124Z,99099.75
2023-03-29T04:09:52.821Z,99101.66
2023-03-29T04:15:23.894Z,99094.25
2023-03-29T04:20:42.740Z,99088.25
2023-03-29T04:25:51.114Z,99088.31
2023-03-29T04:31:15.946Z,99092.66
2023-03-29T04:36:44.468Z,99076.25
2023-03-29T04:42:00.528Z,99085.59
2023-03-29T04:47:08.304Z,99085.03
2023-03-29T04:52:36.869Z,99079.22
2023-03-29T04:57:46.406Z,99077.38
2023-03-29T05:02:59.728Z,99076.56
2023-03-29T05:08:17.413Z,99077.13
2023-03-29T05:13:45.461Z,99069.41
2023-03-29T05:18:51.931Z,99052.69
2023-03-29T05:24:00.749Z,99055.72
2023-03-29T05:29:26.853Z,99047.94
2023-03-29T05:34:46.339Z,99046.75
2023-03-29T05:40:06.081Z,99036.56
2023-03-29T05:45:19.304Z,99028.59
2023-03-29T05:50:30.367Z,99033.88
2023-03-29T05:55:41.534Z,99036.25
2023-03-29T06:00:53.747Z,99033.00
2023-03-29T06:06:24.906Z,99032.59
2023-03-29T06:11:33.061Z,99053.59
2023-03-29T06:16:55.325Z,99047.16
2023-03-29T06:22:00.885Z,99054.06
2023-03-29T06:27:10.024Z,99054.19
2023-03-29T06:32:16.200Z,99037.56
2023-03-29T06:37:39.652Z,99042.50
2023-03-29T06:43:03.989Z,99036.41
2023-03-29T06:48:18.032Z,99040.00
2023-03-29T06:53:23.619Z,99036.25
2023-03-29T06:58:45.571Z,99043.31
2023-03-29T07:04:11.503Z,99038.16
2023-03-29T07:09:54.109Z,99034.13
2023-03-29T07:15:20.912Z,99030.34
2023-03-29T07:20:49.682Z,99032.56
2023-03-29T07:25:55.229Z,99024.75
2023-03-29T07:31:10.137Z,99030.31
2023-03-29T07:36:22.631Z,99036.06
2023-03-29T07:41:28.902Z,99049.50
2023-03-29T07:46:43.466Z,99040.31
2023-03-29T07:51:49.473Z,99042.84
2023-03-29T07:56:54.714Z,99056.97
2023-03-29T08:02:14.211Z,99057.94
2023-03-29T08:07:25.791Z,99058.31
2023-03-29T08:12:32.060Z,99049.63
2023-03-29T08:17:42.130Z,99063.75
2023-03-29T08:22:50.577Z,99053.94
2023-03-29T08:28:11.975Z,99054.81
2023-03-29T08:33:30.677Z,99041.69
2023-03-29T08:39:12.796Z,99057.09
2023-03-29T08:44:35.569Z,99036.06
2023-03-29T08:50:01.440Z,99026.59
2023-03-29T08:55:32.317Z,99028.59
2023-03-29T09:00:59.270Z,99026.13
2023-03-29T09:06:15.059Z,99020.22
2023-03-29T09:11:42.042Z,99024.84
2023-03-29T09:16:58.691Z,99019.72
2023-03-29T09:22:19.586Z,99019.03
2023-03-29T09:27:31.760Z,99009.25
2023-03-29T09:32:55.718Z,99004.56
2023-03-29T09:38:15.261Z,99010.31
2023-03-29T09:43:33.376Z,99005.28
2023-03-29T09:48:46.786Z,99004.50
2023-03-29T09:53:56.494Z,98996.41
2023-03-29T09:59:37.236Z,98999.28
2023-03-29T10:04:46.257Z,99004.53
2023-03-29T10:10:16.248Z,98994.09
2023-03-29T10:15:30.054Z,98988.28
2023-03-29T10:20:39.163Z,98974.00
2023-03-29T10:25:47.146Z,98983.78
2023-03-29T10:30:59.510Z,98986.44
2023-03-29T10:36:09.846Z,98975.88
2023-03-29T10:41:22.302Z,98964.22
2023-03-29T10:46:36.933Z,98969.78
2023-03-29T10:51:50.815Z,98961.03
2023-03-29T10:57:01.057Z,98954.75
2023-03-29T11:02:33.664Z,98952.09
2023-03-29T11:07:45.619Z,98937.84
2023-03-29T11:12:59.874Z,98930.72
2023-03-29T11:18:25.617Z,98924.88
2023-03-29T11:23:45.055Z,98926.38
2023-03-29T11:28:59.554Z,98926.94
2023-03-29T11:34:18.399Z,98907.78
2023-03-29T11:39:31.649Z,98910.84
2023-03-29T11:44:47.025Z,98900.13
2023-03-29T11:49:57.834Z,98895.16
2023-03-29T11:55:10.227Z,98894.84
2023-03-29T12:00:26.853Z,98879.59
2023-03-29T12:05:37.694Z,98879.91
2023-03-29T12:10:51.691Z,98884.91
2023-03-29T12:16:10.764Z,98870.81
2023-03-29T12:21:23.048Z,98869.22
2023-03-29T12:26:44.940Z,98867.69
2023-03-29T12:32:04.365Z,98866.75
2023-03-29T12:37:32.664Z,98851.94
2023-03-29T12:43:01.442Z,98841.28
2023-03-29T12:48:43.336Z,98840.63
2023-03-29T12:53:58.004Z,98837.59
2023-03-29T12:59:30.552Z,98840.34
2023-03-29T13:04:55.787Z,98836.09
2023-03-29T13:10:10.871Z,98823.91
2023-03-29T13:15:28.853Z,98826.00
2023-03-29T13:20:49.094Z,98824.28
2023-03-29T13:26:09.788Z,98810.78
2023-03-29T13:31:28.494Z,98802.25
2023-03-29T13:36:49.413Z,98796.03
2023-03-29T13:41:57.534Z,98797.28
2023-03-29T13:47:16.650Z,98801.44
2023-03-29T13:52:30.929Z,98786.53
2023-03-29T13:57:40.422Z,98779.44
2023-03-29T14:02:50.418Z,98770.38
2023-03-29T14:08:02.717Z,98762.94
2023-03-29T14:13:08.310Z,98769.28
2023-03-29T14:18:14.932Z,98770.44
2023-03-29T14:23:25.708Z,98767.03
2023-03-29T14:28:33.604Z,98762.59
2023-03-29T14:33:38.927Z,98762.78
2023-03-29T14:38:50.056Z,98753.75
2023-03-29T14:43:58.559Z,98757.13
2023-03-29T14:49:06.809Z,98750.25
2023-03-29T14:54:22.564Z,98750.75
2023-03-29T14:59:31.410Z,98761.63
2023-03-29T15:04:37.632Z,98745.66
2023-03-29T15:09:51.253Z,98730.81
2023-03-29T15:14:57.541Z,98733.56
2023-03-29T15:20:13.554Z,98737.41
2023-03-29T15:25:23.208Z,98730.31
2023-03-29T15:30:36.091Z,98734.75
2023-03-29T15:35:43.142Z,98724.72
2023-03-29T15:40:51.388Z,98720.25
2023-03-29T15:45:56.730Z,98718.78
2023-03-29T15:51:06.181Z,98696.28
2023-03-29T15:56:23.245Z,98699.50
2023-03-29T16:01:40.899Z,98700.00
2023-03-29T16:06:48.797Z,98704.31
2023-03-29T16:11:56.684Z,98702.63
2023-03-29T16:17:05.119Z,98697.94
2023-03-29T16:22:10.519Z,98692.28
2023-03-29T16:27:18.180Z,98686.09
2023-03-29T16:32:23.629Z,98689.03
2023-03-29T16:37:28.714Z,98685.13
2023-03-29T16:42:36.390Z,98684.72
2023-03-29T16:47:44.494Z,98682.03
2023-03-29T16:52:51.677Z,98682.81
2023-03-29T16:57:59.322Z,98676.16
2023-03-29T17:03:09.676Z,98667.22
2023-03-29T17:08:15.611Z,98671.94
2023-03-29T17:13:24.301Z,98663.06
2023-03-29T17:18:35.394Z,98671.44
2023-03-29T17:23:44.945Z,98675.97
2023-03-29T17:28:54.001Z,98667.94
2023-03-29T17:34:05.889Z,98667.22
2023-03-29T17:39:11.272Z,98657.25
2023-03-29T17:44:18.919Z,98667.44
2023-03-29T17:49:24.251Z,98661.78
2023-03-29T17:54:29.672Z,98665.94
2023-03-29T17:59:38.154Z,98662.41
2023-03-29T18:04:43.204Z,98664.66
2023-03-29T18:09:48.296Z,98672.94
2023-03-29T18:14:57.093Z,98672.16
2023-03-29T18:20:02.080Z,98678.81
2023-03-29T18:25:10.268Z,98682.91
2023-03-29T18:30:19.568Z,98681.50
2023-03-29T18:35:24.952Z,98691.72
2023-03-29T18:40:31.344Z,98688.03
2023-03-29T18:45:39.204Z,98699.94
2023-03-29T18:50:46.736Z,98703.75
2023-03-29T18:55:54.299Z,98702.53
2023-03-29T19:01:07.139Z,98703.09
2023-03-29T19:06:12.806Z,98695.88
2023-03-29T19:11:20.210Z,98690.78
2023-03-29T19:16:30.390Z,98710.66
2023-03-29T19:21:35.682Z,98711.72
2023-03-29T19:26:40.925Z,98701.09
2023-03-29T19:31:48.947Z,98703.25
2023-03-29T19:37:00.733Z,98707.31
2023-03-29T19:42:06.954Z,98701.78
2023-03-29T19:47:15.604Z,98696.09
2023-03-29T19:52:24.155Z,98680.00
2023-03-29T19:57:30.971Z,98676.09
2023-03-29T20:02:39.085Z,98673.88
2023-03-29T20:07:46.456Z,98671.94
2023-03-29T20:12:51.673Z,98676.09
2023-03-29T20:18:01.529Z,98663.53
2023-03-29T20:23:06.819Z,98663.91
2023-03-29T20:28:13.061Z,98662.31
2023-03-29T20:33:23.384Z,98653.88
2023-03-29T20:38:28.578Z,98650.25
2023-03-29T20:43:37.931Z,98634.31
2023-03-29T20:48:53.548Z,98626.22
2023-03-29T20:54:02.726Z,98617.09
2023-03-29T20:59:10.918Z,98613.25
2023-03-29T21:04:21.331Z,98608.94
2023-03-29T21:09:27.343Z,98597.94
2023-03-29T21:14:34.850Z,98601.97
2023-03-29T21:19:43.323Z,98586.94
2023-03-29T21:24:50.728Z,98585.50
2023-03-29T21:29:55.856Z,98579.38
2023-03-29T21:35:04.393Z,98584.88
2023-03-29T21:40:12.525Z,98576.78
2023-03-29T21:45:19.926Z,98569.50
2023-03-29T21:50:28.087Z,98570.44
2023-03-29T21:55:33.129Z,98557.00
2023-03-29T22:00:40.301Z,98559.75
2023-03-29T22:05:58.347Z,98550.88
2023-03-29T22:11:11.290Z,98547.97
2023-03-29T22:16:19.498Z,98543.00
2023-03-29T22:21:28.779Z,98546.09
2023-03-29T22:26:35.361Z,98540.41
2023-03-29T22:31:40.590Z,98528.88
2023-03-29T22:36:48.511Z,98526.31
2023-03-29T22:41:53.480Z,98524.19
2023-03-29T22:46:58.669Z,98520.53
2023-03-29T22:52:06.969Z,98527.75
2023-03-29T22:57:12.032Z,98519.06
2023-03-29T23:02:17.364Z,98527.66
2023-03-29T23:07:24.986Z,98516.59
2023-03-29T23:12:30.407Z,98517.78
2023-03-29T23:17:35.659Z,98512.44
2023-03-29T23:22:43.342Z,98505.47
2023-03-29T23:27:48.323Z,98515.84
2023-03-29T23:32:53.688Z,98509.22
2023-03-29T23:38:01.774Z,98508.28
2023-03-29T23:43:08.740Z,98513.84
2023-03-29T23:48:13.770Z,98496.88
2023-03-29T23:53:22.234Z,98491.28
2023-03-29T23:58:29.949Z,98485.59
